Tiempo atmosférico en la estación meteorológica de Las Palmas de Gran Canaria, Tafira, Las Palmas (269 m.)



Fecha
DESCASC
Temp. máxima en grados centígrados (hora)
DESCASC
Temp. mínima en grados centígrados (hora)
DESCASC
Temp. media en grados centígrados
DESCASC
Racha de viento máxima en m/sg (hora)
DESCASC
Velocidad máxima media en intervalos de 10 minutos(hora)
DESCASC
Precipitaciones diarias en mm
DESCASC
Precipitaciones de 00:00 a 06:00 en mm
DESCASC
Precipitaciones de 06:00 a 12:00 en mm
DESCASC
Precipitaciones de 12:00 a 18:00 en mm
DESCASC
Precipitaciones de 18:00 a 24:00 en mm
DESCASC
29-03-2020 17.9 (16:50) 11.8 (08:10) 14.8 4.17 (14:10) 2.78 (08:10) 0 0 0 0 0
28-03-2020 18.5 (12:40) 13 (23:30) 15.8 9.72 (04:20) 5.28 (02:40) 0.2 0.2 0 0 0
27-03-2020 19 (14:10) 12.5 (01:10) 15.8 9.44 (10:10) 5 (09:00) 11.8 0 0.4 5.2 6.2
26-03-2020 17.4 (11:30) 12.3 (00:00) 14.8 5.56 (12:40) 2.78 (14:20) 0.8 0 0 0.8 0
25-03-2020 18.7 (12:10) 13.7 (00:00) 16.2 7.22 (14:20) 4.17 (12:20) 0 0 0 0 0
24-03-2020 18.4 (14:20) 13.9 (00:00) 16.1 11.67 (12:50) 6.39 (00:20) 0 0 0 0 0
23-03-2020 16.4 (15:20) 11.6 (00:00) 14 22.78 (06:30) 9.44 (06:50) 5.8 2.4 2.6 0.4 0.4
22-03-2020 19 (14:40) 12.2 (19:30) 15.6 12.22 (18:10) 6.39 (18:10) 1 0 0.4 0 0.6
21-03-2020 17.3 (14:10) 13.2 (00:00) 15.2 8.89 (20:30) 5.28 (15:50) 0.6 0 0.2 0 0.4
20-03-2020 18.1 (15:20) 14 (00:00) 16.1 10 (14:30) 6.39 (12:10) 3.2 0 0.4 0 2.8
19-03-2020 18.5 (14:30) 14.7 (00:00) 16.6 14.72 (00:20) 8.61 (00:30) 3.2 0 3.2 0 0
18-03-2020 17.4 (13:30) 11.6 (00:00) 14.5 15.28 (21:20) 8.33 (21:20) 1.8 1 0 0 0.8
17-03-2020 16.2 (12:50) 11.9 (00:00) 14.1 10 (13:00) 5.28 (13:00) 1.8 0.8 0 0.6 0.4
16-03-2020 18.4 (13:00) 14.3 (00:00) 16.3 10.28 (10:30) 5.83 (14:30) 1.2 0.6 0.2 0.4 0
15-03-2020 17.8 (13:20) 13.9 (00:00) 15.8 9.72 (16:30) 5.56 (16:10) 0.2 0 0 0 0.2
14-03-2020 17.6 (11:50) 14.3 (00:00) 16 7.5 (16:30) 4.17 (18:50) 0 0 0 0 0
13-03-2020 19.1 (14:40) 15.3 (06:30) 17.2 7.5 (15:30) 3.89 (16:10) 0 0 0 0 0
12-03-2020 23.1 (12:40) 13.7 (00:00) 18.4 7.22 (13:20) 4.17 (13:10) 0 0 0 0 0
11-03-2020 23.7 (13:40) 13.4 (00:00) 18.6 7.22 (14:40) 4.44 (14:20) 0 0 0 0 0
10-03-2020 21.1 (14:40) 12.5 (00:00) 16.8 5 (12:30) 2.5 (01:30) 0 0 0 0 0
09-03-2020 22.4 (13:50) 14 (00:00) 18.2 5 (15:20) 3.06 (14:10) 0 0 0 0 0
08-03-2020 20.5 (13:50) 13.2 (00:00) 16.8 6.94 (00:20) 4.17 (00:20) 0 0 0 0 0
07-03-2020 17.8 (14:20) 14.5 (00:00) 16.1 8.06 (23:59) 4.72 (17:30) 0 0 0 0 0
06-03-2020 16.7 (13:10) 14 (00:00) 15.4 9.44 (16:50) 3.89 (15:40) 4.6 3.8 0.8 0 0
05-03-2020 17.5 (15:20) 15.3 (00:00) 16.4 7.5 (14:20) 3.61 (09:30) 0 0 0 0 0
04-03-2020 20.6 (13:50) 12.9 (00:00) 16.8 6.39 (22:20) 3.61 (22:20) 0 0 0 0 0
03-03-2020 19.9 (13:20) 14.9 (00:00) 17.4 6.39 (15:10) 3.61 (14:00) 0 0 0 0 0
02-03-2020 19.4 (11:50) 15 (00:00) 17.2 7.5 (15:10) 4.17 (11:40) 0 0 0 0 0
01-03-2020 19.3 (13:00) 12.9 (00:00) 16.1 7.22 (17:20) 4.72 (16:00) 0 0 0 0 0
29-02-2020 18.8 (14:20) 13.6 (00:00) 16.2 8.33 (02:10) 4.72 (02:30) 0 0 0 0 0

Gráficas

Temp. máximas Temp. mínimas Temp. medias Precipitaciones Rachas de viento máximas Velocidades máximas media en intervalos de 10 minutos

Datos horarios

Fecha y hora oficial Temperatura (ºC) Velocidad del viento (km/h) Dirección del viento Racha (km/h) Dirección de racha Precipitación (mm) Presión (hPa) Tendencia (hPa) Humedad (%)
2020-03-29 23:00:00 14.7 2 Sudoeste 4 Sudoeste 0 -- -- 84
2020-03-29 22:00:00 15.2 2 Oeste 6 Noroeste 0 -- -- 82
2020-03-29 21:00:00 15.9 4 Noroeste 12 Norte 0 -- -- 80
2020-03-29 20:00:00 16.3 6 Noroeste 11 Norte 0 -- -- 76
2020-03-29 19:00:00 17 6 Noroeste 12 Noroeste 0 -- -- 70
2020-03-29 18:00:00 17.1 5 Sudeste 14 Este 0 -- -- 73
2020-03-29 17:00:00 17.8 4 Sudeste 14 Este 0 -- -- 71
2020-03-29 16:00:00 16.9 3 Este 9 Sudeste 0 -- -- 73
2020-03-29 15:00:00 16.9 6 Este 15 Este 0 -- -- 74
2020-03-29 14:00:00 17.2 5 Este 14 Nordeste 0 -- -- 71
2020-03-29 13:00:00 17.2 6 Nordeste 13 Nordeste 0 -- -- 71
2020-03-29 12:00:00 16.8 5 Nordeste 14 Nordeste 0 -- -- 73
2020-03-29 11:00:00 17 3 Norte 10 Norte 0 -- -- 74
2020-03-29 10:00:00 16 3 Norte 11 Sur 0 -- -- 79
2020-03-29 09:00:00 13.4 7 Sur 15 Sur 0 -- -- 75
2020-03-29 08:00:00 11.9 10 Sur 14 Sur 0 -- -- 80
2020-03-29 07:00:00 12.1 9 Sur 13 Sur 0 -- -- 83
2020-03-29 06:00:00 12.2 7 Sur 11 Sur 0 -- -- 85
2020-03-29 05:00:00 12.3 5 Sur 12 Sur 0 -- -- 85
2020-03-29 04:00:00 12.4 6 Sur 11 Sur 0 -- -- 82
2020-03-29 00:00:00 13 5 Sudoeste 10 Sur 0 -- -- 80
2020-03-28 23:00:00 13.3 6 Sur 9 Sur 0 -- -- 81
2020-03-28 22:00:00 14 4 Sur 7 Sur 0 -- -- 85
2020-03-28 21:00:00 14.6 2 Sudoeste 10 Oeste 0 -- -- 85
2020-03-28 20:00:00 14.9 6 Noroeste 12 Noroeste 0 -- -- 84
2020-03-28 19:00:00 15.8 9 Noroeste 15 Noroeste 0 -- -- 80
2020-03-28 18:00:00 17.1 9 Noroeste 17 Noroeste 0 -- -- 73
2020-03-28 17:00:00 17.8 9 Noroeste 19 Noroeste 0 -- -- 69
2020-03-28 16:00:00 18.2 10 Noroeste 21 Norte 0 -- -- 65
2020-03-28 15:00:00 18.3 12 Norte 22 Noroeste 0 -- -- 71
2020-03-28 14:00:00 18.1 12 Norte 22 Norte 0 -- -- 70
2020-03-28 13:00:00 18.4 12 Norte 20 Norte 0 -- -- 71
2020-03-28 12:00:00 18 12 Noroeste 21 Noroeste 0 -- -- 71
2020-03-28 11:00:00 16.9 12 Noroeste 26 Noroeste 0 -- -- 78
2020-03-28 10:00:00 16.1 11 Noroeste 22 Oeste 0 -- -- 76
2020-03-28 09:00:00 15.1 11 Noroeste 21 Noroeste 0 -- -- 82
2020-03-28 08:00:00 13.9 9 Oeste 23 Noroeste 0 -- -- 86
2020-03-28 07:00:00 13.5 14 Noroeste 26 Oeste 0 -- -- 87
2020-03-28 06:00:00 13.4 11 Oeste 29 Oeste 0 -- -- 87
2020-03-28 05:00:00 13.4 15 Oeste 35 Oeste 0 -- -- 87
2020-03-28 04:00:00 13.5 15 Oeste 33 Oeste 0 -- -- 87
2020-03-28 03:00:00 13.6 18 Noroeste 32 Oeste 0 -- -- 91
2020-03-28 02:00:00 14 14 Noroeste 25 Oeste 0 -- -- 92
2020-03-28 01:00:00 13.8 6 Oeste 19 Noroeste 0.2 -- -- 93
2020-03-28 00:00:00 14 8 Oeste 23 Oeste 3.2 -- -- 94
2020-03-27 23:00:00 13.6 7 Oeste 19 Oeste 1.8 -- -- 94
2020-03-27 22:00:00 14.2 10 Noroeste 18 Noroeste 1.2 -- -- 91
2020-03-27 21:00:00 14.8 5 Sur 10 Sudeste 0 -- -- 89
2020-03-27 20:00:00 15.1 5 Sudeste 9 Sur 0 -- -- 88
2020-03-27 19:00:00 15.5 5 Este 12 Sudeste 0 -- -- 87
2020-03-27 18:00:00 16.3 6 Sudeste 13 Sudeste 2.4 -- -- 86
2020-03-27 17:00:00 16.1 4 Sudeste 18 Norte 2.8 -- -- 81
2020-03-27 16:00:00 17.5 6 Noroeste 21 Noroeste 0 -- -- 72
2020-03-27 15:00:00 18.9 10 Noroeste 26 Norte 0 -- -- 66
2020-03-27 14:00:00 18.8 14 Noroeste 30 Norte 0 -- -- 68
2020-03-27 13:00:00 18.6 13 Noroeste 28 Noroeste 0 -- -- 69
2020-03-27 12:00:00 18.2 10 Noroeste 24 Oeste 0 -- -- 71
2020-03-27 11:00:00 16.1 11 Noroeste 34 Oeste 0.4 -- -- 82
2020-03-27 10:00:00 15.5 12 Noroeste 27 Noroeste 0 -- -- 85
2020-03-27 09:00:00 15.7 18 Oeste 31 Oeste 0 -- -- 79
2020-03-27 08:00:00 14 10 Oeste 22 Oeste 0 -- -- 83
2020-03-27 07:00:00 13.9 9 Oeste 22 Oeste 0 -- -- 80
2020-03-27 06:00:00 13.2 11 Oeste 21 Sudoeste 0 -- -- 81
2020-03-27 05:00:00 12.6 13 Oeste 23 Oeste 0 -- -- 87
2020-03-27 04:00:00 13.2 7 Oeste 14 Oeste 0 -- -- 81
2020-03-27 03:00:00 12.7 4 Sudoeste 11 Oeste 0 -- -- 81
2020-03-27 02:00:00 12.7 4 Oeste 10 Sudoeste 0 -- -- 82
2020-03-27 01:00:00 12.6 2 Sur 12 Sudoeste 0 -- -- 83
2020-03-27 00:00:00 13.4 3 Oeste 11 Oeste 0 -- -- 83
2020-03-26 23:00:00 13.5 4 Oeste 10 Oeste 0 -- -- 83
2020-03-26 22:00:00 13.9 0 Calma 8 Noroeste 0 -- -- 83
2020-03-26 21:00:00 14.1 4 Noroeste 11 Noroeste 0 -- -- 80
2020-03-26 20:00:00 14.5 5 Noroeste 11 Noroeste 0 -- -- 79
2020-03-26 19:00:00 15.4 3 Norte 10 Nordeste 0 -- -- 76
2020-03-26 18:00:00 15.9 5 Este 10 Nordeste 0 -- -- 74
2020-03-26 17:00:00 15.9 5 Este 13 Nordeste 0 -- -- 75
2020-03-26 16:00:00 15.7 4 Este 10 Sudeste 0 -- -- 79
2020-03-26 15:00:00 15.2 5 Sudeste 20 Sur 0.8 -- -- 84
2020-03-26 14:00:00 16.1 2 Nordeste 19 Nordeste 0 -- -- 72
2020-03-26 13:00:00 16.8 8 Nordeste 20 Nordeste 0 -- -- 70
2020-03-26 12:00:00 17.2 9 Nordeste 19 Nordeste 0 -- -- 69
2020-03-26 11:00:00 16.2 6 Nordeste 12 Nordeste 0 -- -- 70
2020-03-26 10:00:00 16 5 Norte 10 Norte 0 -- -- 73
2020-03-26 09:00:00 15.7 3 Sudoeste 10 Sur 0 -- -- 76
2020-03-26 08:00:00 13.6 6 Sur 14 Sur 0 -- -- 73
2020-03-26 07:00:00 12.4 8 Sur 12 Sur 0 -- -- 77
2020-03-26 06:00:00 13 5 Sur 10 Sur 0 -- -- 79
2020-03-26 05:00:00 13.4 4 Sudoeste 9 Sur 0 -- -- 81
2020-03-26 04:00:00 13.7 4 Sur 7 Sur 0 -- -- 82
2020-03-26 03:00:00 13.6 4 Sudoeste 6 Sudoeste 0 -- -- 83
2020-03-26 02:00:00 13.9 3 Sudoeste 8 Sur 0 -- -- 81
2020-03-26 01:00:00 14 5 Sudoeste 8 Sur 0 -- -- 79
2020-03-26 00:00:00 14.2 5 Sur 10 Sur 0 -- -- 77
2020-03-25 23:00:00 13.9 2 Sur 9 Sudoeste 0 -- -- 78
2020-03-25 22:00:00 13.9 4 Noroeste 13 Noroeste 0 -- -- 77
2020-03-25 21:00:00 14.5 8 Noroeste 16 Norte 0 -- -- 78
2020-03-25 20:00:00 15 9 Norte 19 Norte 0 -- -- 76
2020-03-25 19:00:00 15.4 8 Noroeste 17 Noroeste 0 -- -- 76
2020-03-25 18:00:00 16.4 6 Norte 14 Noroeste 0 -- -- 68
2020-03-25 17:00:00 16.8 8 Noroeste 18 Norte 0 -- -- 69
2020-03-25 16:00:00 17.5 8 Norte 18 Noroeste 0 -- -- 65
2020-03-25 15:00:00 17.6 8 Norte 26 Noroeste 0 -- -- 65
2020-03-25 14:00:00 17.7 8 Norte 24 Noroeste 0 -- -- 64
2020-03-25 13:00:00 17.6 13 Norte 25 Noroeste 0 -- -- 67
2020-03-25 12:00:00 18.5 11 Norte 23 Noroeste 0 -- -- 61
2020-03-25 11:00:00 17.3 8 Noroeste 19 Noroeste 0 -- -- 68
2020-03-25 10:00:00 16 10 Noroeste 19 Noroeste 0 -- -- 76
2020-03-25 09:00:00 15.5 11 Noroeste 19 Oeste 0 -- -- 69
2020-03-25 08:00:00 14.8 6 Oeste 14 Oeste 0 -- -- 81
2020-03-25 07:00:00 13.9 4 Oeste 10 Oeste 0 -- -- 84
2020-03-25 06:00:00 14 5 Oeste 12 Oeste 0 -- -- 84
2020-03-25 05:00:00 14.4 7 Oeste 16 Noroeste 0 -- -- 82
2020-03-25 04:00:00 14.6 6 Noroeste 20 Noroeste 0 -- -- 82
2020-03-25 03:00:00 14.7 8 Noroeste 21 Noroeste 0 -- -- 82
2020-03-25 02:00:00 14.9 9 Noroeste 17 Noroeste 0 -- -- 80
2020-03-25 01:00:00 14.9 7 Noroeste 19 Noroeste 0 -- -- 81
2020-03-25 00:00:00 14.9 11 Noroeste 21 Noroeste 0 -- -- 81
2020-03-24 23:00:00 15 7 Noroeste 21 Noroeste 0 -- -- 82
2020-03-24 22:00:00 14.8 10 Noroeste 27 Noroeste 0 -- -- 81
2020-03-24 21:00:00 15.2 14 Noroeste 29 Norte 0 -- -- 82
2020-03-24 20:00:00 15.5 15 Noroeste 32 Noroeste 0 -- -- 81
2020-03-24 19:00:00 15.6 17 Noroeste 32 Noroeste 0 -- -- 82
2020-03-24 18:00:00 16.1 18 Noroeste 35 Norte 0 -- -- 79
2020-03-24 17:00:00 16.3 20 Noroeste 36 Noroeste 0 -- -- 78
2020-03-24 16:00:00 17.4 20 Noroeste 35 Noroeste 0 -- -- 69
2020-03-24 15:00:00 16.8 19 Noroeste 39 Noroeste 0 -- -- 71
2020-03-24 14:00:00 18.2 19 Noroeste 33 Noroeste 0 -- -- 63
2020-03-24 13:00:00 17.9 19 Noroeste 42 Oeste 0 -- -- 67
2020-03-24 12:00:00 17.2 19 Noroeste 39 Noroeste 0 -- -- 69
2020-03-24 11:00:00 17.4 19 Noroeste 35 Oeste 0 -- -- 70
2020-03-24 10:00:00 15.9 19 Noroeste 41 Noroeste 0 -- -- 80
2020-03-24 09:00:00 15.3 18 Noroeste 36 Noroeste 0 -- -- 82
2020-03-24 08:00:00 14.5 18 Noroeste 37 Noroeste 0 -- -- 85
2020-03-24 07:00:00 14 16 Oeste 31 Noroeste 0 -- -- 85
2020-03-24 06:00:00 14.3 18 Noroeste 32 Noroeste 0 -- -- 88
2020-03-24 05:00:00 14.5 17 Noroeste 32 Oeste 0 -- -- 88
2020-03-24 04:00:00 14.6 18 Noroeste 39 Noroeste 0 -- -- 87
2020-03-24 03:00:00 14.8 21 Noroeste 38 Noroeste 0 -- -- 83
2020-03-24 02:00:00 14.8 18 Noroeste 35 Oeste 0 -- -- 82
2020-03-24 01:00:00 14.5 18 Noroeste 41 Oeste 0 -- -- 83
2020-03-24 00:00:00 14.4 21 Noroeste 41 Noroeste 0.4 -- -- 89
2020-03-23 23:00:00 15.1 19 Noroeste 45 Oeste 0 -- -- 81
2020-03-23 22:00:00 14.7 19 Noroeste 43 Noroeste 0 -- -- 81
2020-03-23 21:00:00 14.9 23 Noroeste 48 Noroeste 0 -- -- 81
2020-03-23 20:00:00 14.7 21 Noroeste 44 Noroeste 0 -- -- 80
2020-03-23 19:00:00 15 21 Noroeste 38 Oeste 0 -- -- 75
2020-03-23 18:00:00 15.3 19 Noroeste 42 Noroeste 0 -- -- 76
2020-03-23 17:00:00 15.5 27 Noroeste 42 Noroeste 0 -- -- 73
2020-03-23 16:00:00 16.2 21 Noroeste 41 Noroeste 0 -- -- 72
2020-03-23 15:00:00 15.8 23 Noroeste 46 Noroeste 0 -- -- 77
2020-03-23 14:00:00 16.2 26 Noroeste 47 Noroeste 0 -- -- 77
2020-03-23 13:00:00 15.7 27 Noroeste 42 Noroeste 0.4 -- -- 77
2020-03-23 12:00:00 14.1 27 Noroeste 47 Noroeste 0.8 -- -- 83
2020-03-23 11:00:00 13.8 24 Noroeste 42 Noroeste 0.2 -- -- 83
2020-03-23 10:00:00 14 25 Noroeste 46 Noroeste 0.4 -- -- 80
2020-03-23 09:00:00 13 22 Noroeste 51 Noroeste 0.2 -- -- 83
2020-03-23 08:00:00 12.3 23 Noroeste 56 Noroeste 0.2 -- -- 85
2020-03-23 07:00:00 12 28 Noroeste 82 Noroeste 0.8 -- -- 83
2020-03-23 06:00:00 12.1 24 Oeste 47 Oeste 0.8 -- -- 86
2020-03-23 05:00:00 12.5 19 Oeste 46 Oeste 0 -- -- 76
2020-03-23 04:00:00 11.9 25 Noroeste 46 Oeste 0.8 -- -- 86
2020-03-23 03:00:00 13.2 14 Oeste 33 Oeste 0 -- -- 72
2020-03-23 02:00:00 13.1 14 Oeste 35 Oeste 0 -- -- 79
2020-03-23 01:00:00 12.9 18 Oeste 40 Oeste 0.8 -- -- 86
2020-03-23 00:00:00 13.9 10 Noroeste 33 Oeste 0 -- -- 74
2020-03-22 23:00:00 14.2 18 Noroeste 37 Oeste 0 -- -- 75
2020-03-22 22:00:00 14.3 16 Oeste 35 Noroeste 0 -- -- 71
2020-03-22 21:00:00 14.1 13 Oeste 40 Oeste 0 -- -- 72
2020-03-22 20:00:00 13.5 18 Oeste 40 Oeste 0 -- -- 80
2020-03-22 19:00:00 12.7 18 Noroeste 44 Noroeste 0.6 -- -- 94
2020-03-22 18:00:00 14.9 19 Noroeste 33 Noroeste 0 -- -- 88
2020-03-22 17:00:00 16.9 11 Este 19 Sudeste 0 -- -- 70
2020-03-22 16:00:00 18.3 10 Sudeste 21 Sudeste 0 -- -- 62
2020-03-22 15:00:00 18 6 Sur 31 Noroeste 0 -- -- 60
2020-03-22 14:00:00 18.6 12 Noroeste 24 Noroeste 0 -- -- 61
2020-03-22 13:00:00 18.1 12 Noroeste 35 Oeste 0 -- -- 61
2020-03-22 12:00:00 16.8 18 Oeste 37 Oeste 0 -- -- 64
2020-03-22 11:00:00 15.4 11 Noroeste 30 Noroeste 0.4 -- -- 85
2020-03-22 10:00:00 14.5 14 Noroeste 34 Noroeste 0 -- -- 86
2020-03-22 09:00:00 13.5 20 Noroeste 38 Noroeste 0 -- -- 83
2020-03-22 08:00:00 13.7 14 Noroeste 27 Oeste 0 -- -- 76
2020-03-22 07:00:00 13.4 13 Oeste 42 Oeste 0 -- -- 76
2020-03-22 06:00:00 13.9 18 Noroeste 37 Noroeste 0 -- -- 77
2020-03-22 05:00:00 13.6 9 Noroeste 23 Oeste 0 -- -- 81
2020-03-22 04:00:00 13.5 14 Noroeste 34 Oeste 0 -- -- 78
2020-03-22 03:00:00 14 12 Noroeste 26 Noroeste 0 -- -- 74
2020-03-22 02:00:00 14.1 13 Noroeste 30 Noroeste 0 -- -- 73
2020-03-22 01:00:00 14.1 13 Noroeste 27 Noroeste 0 -- -- 73
2020-03-22 00:00:00 13.8 13 Noroeste 27 Noroeste 0 -- -- 81
2020-03-21 23:00:00 13.8 13 Noroeste 26 Noroeste 0 -- -- 83
2020-03-21 22:00:00 13.3 17 Noroeste 28 Noroeste 0.4 -- -- 84
2020-03-21 21:00:00 13.5 12 Oeste 32 Oeste 0 -- -- 77
2020-03-21 20:00:00 13.6 11 Oeste 31 Oeste 0 -- -- 79
2020-03-21 19:00:00 14.7 11 Noroeste 24 Noroeste 0 -- -- 66
2020-03-21 18:00:00 15.1 13 Noroeste 23 Oeste 0 -- -- 64
2020-03-21 17:00:00 15.9 12 Noroeste 24 Norte 0 -- -- 62
2020-03-21 16:00:00 15.6 14 Noroeste 30 Noroeste 0 -- -- 66
2020-03-21 15:00:00 16.5 13 Noroeste 28 Noroeste 0 -- -- 65
2020-03-21 14:00:00 17 15 Noroeste 28 Noroeste 0 -- -- 65
2020-03-21 13:00:00 16.2 15 Noroeste 29 Noroeste 0 -- -- 68
2020-03-21 12:00:00 16.5 10 Noroeste 24 Noroeste 0 -- -- 67
2020-03-21 11:00:00 15.5 11 Noroeste 22 Norte 0.2 -- -- 68
2020-03-21 10:00:00 14 7 Noroeste 27 Noroeste 0 -- -- 76
2020-03-21 09:00:00 13.8 10 Noroeste 20 Norte 0 -- -- 73
2020-03-21 08:00:00 13.7 10 Noroeste 18 Noroeste 0 -- -- 69
2020-03-21 07:00:00 13.7 9 Noroeste 21 Norte 0 -- -- 73
2020-03-21 06:00:00 13.9 10 Norte 19 Noroeste 0 -- -- 69
2020-03-21 05:00:00 14 11 Noroeste 22 Norte 0 -- -- 67
2020-03-21 04:00:00 14 9 Noroeste 23 Noroeste 0 -- -- 75
2020-03-21 03:00:00 14 12 Noroeste 23 Noroeste 0 -- -- 72
2020-03-21 02:00:00 13.9 12 Noroeste 27 Noroeste 0 -- -- 75
2020-03-21 01:00:00 14.3 10 Noroeste 27 Norte 0 -- -- 84
2020-03-21 00:00:00 14.4 14 Norte 26 Norte 0.4 -- -- 88
2020-03-20 23:00:00 14.7 11 Norte 25 Norte 0 -- -- 89
2020-03-20 22:00:00 14.6 11 Norte 24 Norte 0 -- -- 91
2020-03-20 21:00:00 14.5 7 Norte 22 Noroeste 0.8 -- -- 94
2020-03-20 20:00:00 14 9 Noroeste 26 Noroeste 1.6 -- -- 93
2020-03-20 19:00:00 15.3 13 Noroeste 27 Noroeste 0 -- -- 86
2020-03-20 18:00:00 15.2 10 Oeste 24 Noroeste 0 -- -- 87
2020-03-20 17:00:00 16.6 12 Noroeste 25 Noroeste 0 -- -- 73
2020-03-20 16:00:00 17.5 15 Noroeste 28 Noroeste 0 -- -- 70
2020-03-20 15:00:00 17.7 17 Noroeste 36 Noroeste 0 -- -- 68
2020-03-20 14:00:00 17.5 17 Noroeste 33 Noroeste 0 -- -- 72
2020-03-20 13:00:00 17 19 Noroeste 35 Noroeste 0 -- -- 77
2020-03-20 12:00:00 17.5 22 Noroeste 35 Noroeste 0 -- -- 72
2020-03-20 11:00:00 17 18 Noroeste 33 Noroeste 0 -- -- 75
2020-03-20 10:00:00 14.9 15 Noroeste 34 Noroeste 0.4 -- -- 91
2020-03-20 09:00:00 15.9 22 Noroeste 32 Noroeste 0 -- -- 81
2020-03-20 08:00:00 15.4 15 Noroeste 31 Noroeste 0 -- -- 76
2020-03-20 07:00:00 15.4 17 Noroeste 35 Noroeste 0 -- -- 81
2020-03-20 06:00:00 15.4 22 Noroeste 33 Noroeste 0 -- -- 83
2020-03-20 05:00:00 15.2 18 Noroeste 34 Noroeste 0 -- -- 89
2020-03-20 04:00:00 15.3 16 Noroeste 31 Noroeste 0 -- -- 88
2020-03-20 03:00:00 15.3 13 Noroeste 26 Noroeste 0 -- -- 89
2020-03-20 02:00:00 15.4 17 Noroeste 28 Noroeste 0 -- -- 89
2020-03-20 01:00:00 15.3 17 Noroeste 30 Noroeste 0 -- -- 90
2020-03-20 00:00:00 15.6 19 Noroeste 32 Noroeste 0 -- -- 87
2020-03-19 23:00:00 15.7 18 Noroeste 35 Noroeste 0 -- -- 87
2020-03-19 22:00:00 15.8 17 Noroeste 32 Noroeste 0 -- -- 87
2020-03-19 21:00:00 15.9 18 Noroeste 35 Noroeste 0 -- -- 86
2020-03-19 20:00:00 16 21 Noroeste 36 Noroeste 0 -- -- 86
2020-03-19 19:00:00 16.1 20 Noroeste 34 Noroeste 0 -- -- 86
2020-03-19 18:00:00 16.4 22 Noroeste 36 Noroeste 0 -- -- 85
2020-03-19 17:00:00 16.9 18 Noroeste 34 Noroeste 0 -- -- 79
2020-03-19 16:00:00 17.7 19 Noroeste 33 Noroeste 0 -- -- 73
2020-03-19 15:00:00 18 15 Noroeste 36 Noroeste 0 -- -- 66
2020-03-19 14:00:00 17.9 19 Noroeste 35 Noroeste 0 -- -- 64
2020-03-19 13:00:00 17.9 20 Noroeste 36 Noroeste 0 -- -- 67
2020-03-19 12:00:00 17.6 21 Noroeste 39 Norte 0 -- -- 67
2020-03-19 11:00:00 16.7 26 Noroeste 48 Noroeste 0.2 -- -- 85
2020-03-19 10:00:00 16.4 20 Noroeste 48 Noroeste 0 -- -- 87
2020-03-19 09:00:00 15.6 21 Noroeste 41 Norte 2.6 -- -- 92
2020-03-19 08:00:00 15.3 18 Noroeste 40 Oeste 0 -- -- 90
2020-03-19 07:00:00 14.7 21 Noroeste 42 Oeste 0.4 -- -- 91
2020-03-19 06:00:00 14.9 21 Oeste 43 Oeste 0 -- -- 89
2020-03-19 05:00:00 14.9 25 Noroeste 45 Oeste 0 -- -- 83
2020-03-19 04:00:00 14.8 22 Noroeste 50 Oeste 0 -- -- 80
2020-03-19 03:00:00 14.8 25 Noroeste 51 Noroeste 0 -- -- 83
2020-03-19 02:00:00 14.8 25 Noroeste 51 Noroeste 0 -- -- 87
2020-03-19 01:00:00 15.2 29 Noroeste 53 Oeste 0 -- -- 79
2020-03-19 00:00:00 15.2 27 Noroeste 50 Oeste 0 -- -- 73
2020-03-18 23:00:00 14.9 25 Noroeste 51 Oeste 0 -- -- 68
2020-03-18 22:00:00 14.7 26 Noroeste 55 Noroeste 0 -- -- 71
2020-03-18 21:00:00 14.7 29 Noroeste 54 Noroeste 0.6 -- -- 75
2020-03-18 20:00:00 14.7 28 Noroeste 48 Noroeste 0.2 -- -- 84
2020-03-18 19:00:00 14.9 26 Noroeste 44 Noroeste 0 -- -- 77
2020-03-18 18:00:00 15.7 21 Noroeste 47 Oeste 0 -- -- 72
2020-03-18 17:00:00 15.8 24 Noroeste 51 Noroeste 0 -- -- 72
2020-03-18 16:00:00 16.3 22 Noroeste 46 Oeste 0 -- -- 69
2020-03-18 15:00:00 16.7 23 Noroeste 41 Noroeste 0 -- -- 68
2020-03-18 14:00:00 16.5 19 Noroeste 39 Noroeste 0 -- -- 68
2020-03-18 13:00:00 17.1 18 Noroeste 37 Noroeste 0 -- -- 62
2020-03-18 12:00:00 16.6 19 Noroeste 35 Norte 0 -- -- 64
2020-03-18 11:00:00 16.2 17 Noroeste 37 Norte 0 -- -- 69
2020-03-18 10:00:00 14.4 23 Noroeste 37 Noroeste 0 -- -- 78
2020-03-18 09:00:00 15 22 Noroeste 34 Noroeste 0 -- -- 67
2020-03-18 08:00:00 13 13 Oeste 29 Oeste 0 -- -- 84
2020-03-18 07:00:00 12.9 13 Noroeste 34 Noroeste 0 -- -- 82
2020-03-18 06:00:00 13.1 18 Noroeste 32 Noroeste 0 -- -- 82
2020-03-18 05:00:00 11.7 11 Oeste 31 Noroeste 0.8 -- -- 91
2020-03-18 04:00:00 13.5 17 Noroeste 38 Noroeste 0 -- -- 80
2020-03-18 03:00:00 12.7 13 Oeste 34 Noroeste 0.2 -- -- 83
2020-03-18 02:00:00 13.6 19 Noroeste 36 Noroeste 0 -- -- 76
2020-03-18 01:00:00 12.9 10 Noroeste 37 Noroeste 0 -- -- 92
2020-03-18 00:00:00 12.7 16 Noroeste 30 Noroeste 0 -- -- 91
2020-03-17 23:00:00 13.1 14 Noroeste 31 Noroeste 0.2 -- -- 92
2020-03-17 22:00:00 13.9 18 Noroeste 33 Noroeste 0 -- -- 78
2020-03-17 21:00:00 14 16 Noroeste 32 Noroeste 0 -- -- 84
2020-03-17 20:00:00 14.1 14 Noroeste 27 Noroeste 0 -- -- 76
2020-03-17 19:00:00 13.9 11 Noroeste 31 Noroeste 0.2 -- -- 84
2020-03-17 18:00:00 15 17 Noroeste 30 Noroeste 0 -- -- 72
2020-03-17 17:00:00 15.1 17 Noroeste 28 Noroeste 0 -- -- 72
2020-03-17 16:00:00 15.2 14 Noroeste 35 Norte 0 -- -- 80
2020-03-17 15:00:00 15.1 18 Noroeste 33 Noroeste 0 -- -- 79
2020-03-17 14:00:00 14.7 12 Norte 33 Norte 0.6 -- -- 83
2020-03-17 13:00:00 15.3 19 Norte 36 Norte 0 -- -- 82
2020-03-17 12:00:00 14.9 9 Noroeste 31 Noroeste 0 -- -- 85
2020-03-17 11:00:00 14.6 8 Norte 31 Norte 0 -- -- 79
2020-03-17 10:00:00 13.7 16 Norte 32 Noroeste 0 -- -- 82
2020-03-17 09:00:00 13 5 Noroeste 25 Norte 0 -- -- 83
2020-03-17 08:00:00 12.4 7 Noroeste 16 Oeste 0 -- -- 87
2020-03-17 07:00:00 12.3 13 Noroeste 28 Noroeste 0 -- -- 88
2020-03-17 06:00:00 12.4 9 Noroeste 19 Norte 0.4 -- -- 86
2020-03-17 05:00:00 11.9 8 Oeste 26 Noroeste 0 -- -- 91
2020-03-17 04:00:00 11.9 6 Oeste 22 Noroeste 0.2 -- -- 92
2020-03-17 03:00:00 12.9 14 Noroeste 26 Noroeste 0.2 -- -- 85
2020-03-17 02:00:00 14 13 Norte 31 Norte 0 -- -- 66
2020-03-17 01:00:00 14.2 13 Norte 32 Norte 0 -- -- 65
2020-03-17 00:00:00 14.5 15 Norte 37 Norte 0 -- -- 73
2020-03-16 23:00:00 14.7 17 Norte 33 Norte 0 -- -- 77
2020-03-16 22:00:00 14.5 17 Noroeste 33 Norte 0 -- -- 80
2020-03-16 21:00:00 14.9 17 Norte 31 Noroeste 0 -- -- 82
2020-03-16 20:00:00 14.8 17 Noroeste 30 Noroeste 0 -- -- 89
2020-03-16 19:00:00 14.8 13 Noroeste 32 Noroeste 0 -- -- 86
2020-03-16 18:00:00 15.5 16 Noroeste 34 Noroeste 0 -- -- 86
2020-03-16 17:00:00 15.7 16 Norte 30 Norte 0.4 -- -- 89
2020-03-16 16:00:00 16.7 17 Noroeste 30 Noroeste 0 -- -- 76
2020-03-16 15:00:00 17.3 17 Noroeste 34 Noroeste 0 -- -- 72
2020-03-16 14:00:00 17.8 18 Noroeste 32 Noroeste 0 -- -- 64
2020-03-16 13:00:00 18.4 17 Noroeste 30 Noroeste 0 -- -- 59
2020-03-16 12:00:00 17.5 17 Noroeste 29 Noroeste 0 -- -- 64
2020-03-16 11:00:00 17.1 17 Norte 37 Noroeste 0 -- -- 61
2020-03-16 10:00:00 16.3 14 Noroeste 30 Norte 0 -- -- 68
2020-03-16 09:00:00 14.8 13 Noroeste 30 Noroeste 0.2 -- -- 84
2020-03-16 08:00:00 14.9 17 Norte 28 Norte 0 -- -- 83
2020-03-16 07:00:00 14.6 12 Norte 33 Norte 0 -- -- 84
2020-03-16 06:00:00 14.5 15 Noroeste 26 Noroeste 0 -- -- 83
2020-03-16 05:00:00 14.8 13 Norte 26 Noroeste 0.6 -- -- 83
2020-03-16 04:00:00 15 11 Norte 26 Norte 0 -- -- 83
2020-03-16 03:00:00 15.4 10 Noroeste 25 Noroeste 0 -- -- 84
2020-03-16 02:00:00 15.4 9 Noroeste 24 Noroeste 0 -- -- 84
2020-03-16 01:00:00 15.4 12 Norte 24 Norte 0 -- -- 83
2020-03-16 00:00:00 15.3 15 Noroeste 28 Norte 0 -- -- 82
2020-03-15 23:00:00 15 14 Noroeste 28 Norte 0.2 -- -- 80
2020-03-15 22:00:00 15.6 13 Noroeste 25 Noroeste 0 -- -- 81
2020-03-15 21:00:00 15.5 14 Noroeste 24 Noroeste 0 -- -- 78
2020-03-15 20:00:00 15.4 15 Noroeste 29 Noroeste 0 -- -- 73
2020-03-15 19:00:00 15.1 19 Noroeste 35 Noroeste 0 -- -- 78
2020-03-15 18:00:00 15.7 18 Noroeste 33 Noroeste 0 -- -- 77
2020-03-15 17:00:00 16 18 Noroeste 35 Noroeste 0 -- -- 76
2020-03-15 16:00:00 15.8 15 Noroeste 30 Noroeste 0 -- -- 82
2020-03-15 15:00:00 17.3 17 Noroeste 30 Noroeste 0 -- -- 70
2020-03-15 14:00:00 17.7 16 Noroeste 28 Noroeste 0 -- -- 63
2020-03-15 13:00:00 17.2 14 Noroeste 29 Noroeste 0 -- -- 72
2020-03-15 12:00:00 16.8 14 Noroeste 27 Noroeste 0 -- -- 69
2020-03-15 11:00:00 17 9 Noroeste 27 Noroeste 0 -- -- 74
2020-03-15 10:00:00 15.4 13 Noroeste 23 Noroeste 0 -- -- 77
2020-03-15 09:00:00 14.3 8 Norte 29 Noroeste 0 -- -- 83
2020-03-15 08:00:00 14.5 16 Norte 30 Noroeste 0 -- -- 86
2020-03-15 07:00:00 14.4 11 Noroeste 27 Noroeste 0 -- -- 78
2020-03-15 06:00:00 14.5 11 Noroeste 23 Norte 0 -- -- 81
2020-03-15 05:00:00 14.4 8 Noroeste 20 Noroeste 0 -- -- 81
2020-03-15 04:00:00 14.1 14 Noroeste 30 Noroeste 0 -- -- 85
2020-03-15 03:00:00 14.7 11 Noroeste 22 Noroeste 0 -- -- 78
2020-03-15 02:00:00 14.7 10 Noroeste 24 Norte 0 -- -- 83
2020-03-15 01:00:00 14.7 8 Noroeste 19 Oeste 0 -- -- 80
2020-03-15 00:00:00 14.5 9 Noroeste 20 Noroeste 0 -- -- 80
2020-03-14 23:00:00 14.5 11 Noroeste 21 Oeste 0 -- -- 76
2020-03-14 22:00:00 14.5 9 Noroeste 23 Noroeste 0 -- -- 77
2020-03-14 21:00:00 14.8 10 Noroeste 19 Noroeste 0 -- -- 75
2020-03-14 20:00:00 14.8 9 Noroeste 24 Oeste 0 -- -- 75
2020-03-14 19:00:00 15.2 11 Noroeste 25 Noroeste 0 -- -- 74
2020-03-14 18:00:00 16 14 Noroeste 25 Noroeste 0 -- -- 70
2020-03-14 17:00:00 16.8 13 Noroeste 27 Noroeste 0 -- -- 67
2020-03-14 16:00:00 16.5 13 Noroeste 26 Noroeste 0 -- -- 68
2020-03-14 15:00:00 17 13 Noroeste 24 Noroeste 0 -- -- 65
2020-03-14 14:00:00 17 7 Norte 20 Nordeste 0 -- -- 68
2020-03-14 13:00:00 16.6 12 Nordeste 27 Nordeste 0 -- -- 73
2020-03-14 12:00:00 17.5 11 Nordeste 27 Nordeste 0 -- -- 73
2020-03-14 11:00:00 16.6 12 Nordeste 19 Nordeste 0 -- -- 76
2020-03-14 10:00:00 16.5 6 Norte 15 Noroeste 0 -- -- 77
2020-03-14 09:00:00 15.8 8 Noroeste 15 Noroeste 0 -- -- 81
2020-03-14 08:00:00 14.8 7 Noroeste 14 Noroeste 0 -- -- 84
2020-03-14 07:00:00 14.9 8 Noroeste 17 Norte 0 -- -- 81
2020-03-14 06:00:00 15.1 6 Norte 19 Norte 0 -- -- 85
2020-03-14 05:00:00 14.8 5 Noroeste 13 Noroeste 0 -- -- 88
2020-03-14 04:00:00 15.2 6 Noroeste 15 Noroeste 0 -- -- 85
2020-03-14 03:00:00 15.3 5 Norte 18 Noroeste 0 -- -- 84
2020-03-14 02:00:00 15.6 6 Norte 17 Norte 0 -- -- 88
2020-03-14 01:00:00 15.8 6 Norte 18 Norte 0 -- -- 87
2020-03-14 00:00:00 15.8 6 Noroeste 15 Noroeste 0 -- -- 88
2020-03-13 23:00:00 15.7 6 Noroeste 18 Noroeste 0 -- -- 85
2020-03-13 22:00:00 15.9 6 Noroeste 18 Noroeste 0 -- -- 84
2020-03-13 21:00:00 15.9 9 Noroeste 19 Noroeste 0 -- -- 84
2020-03-13 20:00:00 16 10 Noroeste 21 Noroeste 0 -- -- 83
2020-03-13 19:00:00 16.2 9 Noroeste 22 Noroeste 0 -- -- 85
2020-03-13 18:00:00 16.5 11 Noroeste 22 Noroeste 0 -- -- 80
2020-03-13 17:00:00 17 10 Norte 22 Noroeste 0 -- -- 78
2020-03-13 16:00:00 18 10 Noroeste 27 Norte 0 -- -- 75
2020-03-13 15:00:00 18.1 9 Norte 20 Norte 0 -- -- 74
2020-03-13 14:00:00 18.9 9 Norte 19 Norte 0 -- -- 70
2020-03-13 13:00:00 18.6 8 Norte 17 Norte 0 -- -- 72
2020-03-13 12:00:00 17.3 9 Norte 18 Nordeste 0 -- -- 78
2020-03-13 11:00:00 16.4 6 Nordeste 15 Noroeste 0 -- -- 80
2020-03-13 10:00:00 16 9 Norte 19 Noroeste 0 -- -- 82
2020-03-13 09:00:00 15.6 7 Norte 21 Norte 0 -- -- 84
2020-03-13 08:00:00 15.4 10 Noroeste 20 Noroeste 0 -- -- 86
2020-03-13 07:00:00 15.3 9 Noroeste 17 Noroeste 0 -- -- 85
2020-03-13 06:00:00 15.5 8 Noroeste 18 Noroeste 0 -- -- 87
2020-03-13 05:00:00 15.5 9 Noroeste 18 Noroeste 0 -- -- 85
2020-03-13 04:00:00 15.5 7 Noroeste 17 Noroeste 0 -- -- 86
2020-03-13 03:00:00 15.6 10 Noroeste 18 Noroeste 0 -- -- 88
2020-03-13 02:00:00 15.7 11 Noroeste 21 Noroeste 0 -- -- 88
2020-03-13 01:00:00 15.7 12 Noroeste 20 Noroeste 0 -- -- 89
2020-03-13 00:00:00 15.8 10 Noroeste 21 Oeste 0 -- -- 91
2020-03-12 23:00:00 15.9 9 Noroeste 18 Oeste 0 -- -- 91
2020-03-12 22:00:00 16.2 9 Noroeste 15 Norte 0 -- -- 91
2020-03-12 21:00:00 16.7 6 Noroeste 15 Noroeste 0 -- -- 90
2020-03-12 20:00:00 17.3 5 Noroeste 14 Noroeste 0 -- -- 89
2020-03-12 19:00:00 17.9 6 Norte 12 Norte 0 -- -- 88
2020-03-12 18:00:00 19.3 5 Norte 13 Norte 0 -- -- 83
2020-03-12 17:00:00 20 5 Norte 14 Norte 0 -- -- 79
2020-03-12 16:00:00 21.1 8 Nordeste 16 Nordeste 0 -- -- 75
2020-03-12 15:00:00 22.4 7 Nordeste 16 Nordeste 0 -- -- 67
2020-03-12 14:00:00 22 8 Nordeste 26 Este 0 -- -- 63
2020-03-12 13:00:00 22.6 13 Este 23 Este 0 -- -- 64
2020-03-12 12:00:00 22.4 11 Este 17 Este 0 -- -- 66
2020-03-12 11:00:00 22 10 Este 15 Este 0 -- -- 68
2020-03-12 10:00:00 20.9 5 Este 9 Nordeste 0 -- -- 70
2020-03-12 09:00:00 17.6 4 Este 7 Este 0 -- -- 84
2020-03-12 08:00:00 14.7 0 Calma 9 Sudoeste 0 -- -- 90
2020-03-12 07:00:00 14.9 4 Oeste 15 Oeste 0 -- -- 90
2020-03-12 06:00:00 17.1 6 Oeste 19 Sur 0 -- -- 35
2020-03-12 05:00:00 17.6 13 Sur 20 Sur 0 -- -- 24
2020-03-12 04:00:00 15.8 12 Sur 18 Sur 0 -- -- 38
2020-03-12 03:00:00 14.2 7 Sur 11 Sur 0 -- -- 89
2020-03-12 02:00:00 14 3 Norte 6 Noroeste 0 -- -- 89
2020-03-12 01:00:00 14.4 4 Oeste 14 Oeste 0 -- -- 80
2020-03-12 00:00:00 15.6 6 Noroeste 13 Oeste 0 -- -- 93
2020-03-11 23:00:00 16.2 5 Noroeste 19 Este 0 -- -- 87
2020-03-11 22:00:00 15.6 8 Sudoeste 12 Sudoeste 0 -- -- 80
2020-03-11 21:00:00 16.4 2 Oeste 5 Oeste 0 -- -- 88
2020-03-11 20:00:00 17.3 0 Calma 6 Nordeste 0 -- -- 88
2020-03-11 19:00:00 18.4 4 Este 9 Nordeste 0 -- -- 83
2020-03-11 18:00:00 19.9 5 Nordeste 13 Este 0 -- -- 71
2020-03-11 17:00:00 20.7 5 Nordeste 12 Nordeste 0 -- -- 68
2020-03-11 16:00:00 21.4 8 Nordeste 22 Este 0 -- -- 59
2020-03-11 15:00:00 22.7 14 Este 26 Este 0 -- -- 46
2020-03-11 14:00:00 23.4 14 Este 25 Este 0 -- -- 48
2020-03-11 13:00:00 22 11 Este 19 Este 0 -- -- 60
2020-03-11 12:00:00 19.7 7 Este 12 Este 0 -- -- 74
2020-03-11 11:00:00 16.9 2 Este 7 Norte 0 -- -- 86
2020-03-11 10:00:00 16.5 5 Este 10 Este 0 -- -- 87
2020-03-11 09:00:00 15.5 0 Calma 9 Este 0 -- -- 91
2020-03-11 08:00:00 14.5 4 Este 7 Este 0 -- -- 94
2020-03-11 07:00:00 14.1 4 Sudeste 8 Este 0 -- -- 93
2020-03-11 06:00:00 14.5 3 Sudeste 12 Este 0 -- -- 92
2020-03-11 05:00:00 14.6 3 Este 9 Sudeste 0 -- -- 93
2020-03-11 04:00:00 14.1 3 Sur 5 Sur 0 -- -- 94
2020-03-11 03:00:00 13.6 4 Oeste 12 Oeste 0 -- -- 94
2020-03-11 02:00:00 13.5 5 Oeste 10 Oeste 0 -- -- 93
2020-03-11 01:00:00 13.5 6 Oeste 11 Oeste 0 -- -- 93
2020-03-11 00:00:00 14 5 Oeste 12 Sudoeste 0 -- -- 92
2020-03-10 23:00:00 14.9 4 Oeste 10 Noroeste 0 -- -- 92
2020-03-10 22:00:00 15.3 6 Noroeste 13 Oeste 0 -- -- 93
2020-03-10 21:00:00 15.5 5 Noroeste 10 Oeste 0 -- -- 93
2020-03-10 20:00:00 15.9 4 Noroeste 7 Noroeste 0 -- -- 89
2020-03-10 19:00:00 16.8 4 Noroeste 9 Norte 0 -- -- 86
2020-03-10 18:00:00 18.3 6 Norte 13 Norte 0 -- -- 82
2020-03-10 17:00:00 19.8 7 Norte 16 Noroeste 0 -- -- 75
2020-03-10 16:00:00 20.6 6 Norte 16 Norte 0 -- -- 72
2020-03-10 15:00:00 20.9 9 Noroeste 17 Nordeste 0 -- -- 69
2020-03-10 14:00:00 20.5 6 Nordeste 18 Este 0 -- -- 69
2020-03-10 13:00:00 19.6 8 Nordeste 18 Este 0 -- -- 74
2020-03-10 12:00:00 19.9 8 Nordeste 16 Este 0 -- -- 73
2020-03-10 11:00:00 19.5 6 Nordeste 13 Nordeste 0 -- -- 72
2020-03-10 10:00:00 18.7 6 Norte 12 Norte 0 -- -- 70
2020-03-10 09:00:00 18.3 4 Nordeste 14 Sur 0 -- -- 54
2020-03-10 08:00:00 15.7 8 Sur 14 Sur 0 -- -- 34
2020-03-10 07:00:00 12.5 7 Sur 12 Sur 0 -- -- 49
2020-03-10 06:00:00 13.1 4 Sudoeste 9 Oeste 0 -- -- 90
2020-03-10 05:00:00 13.6 4 Oeste 10 Oeste 0 -- -- 89
2020-03-10 04:00:00 14.2 5 Oeste 10 Oeste 0 -- -- 88
2020-03-10 03:00:00 14.6 8 Oeste 15 Sudoeste 0 -- -- 48
2020-03-10 02:00:00 15.5 7 Sudoeste 15 Sudoeste 0 -- -- 53
2020-03-10 01:00:00 14.6 6 Sudoeste 11 Oeste 0 -- -- 70
2020-03-10 00:00:00 15.2 6 Sudoeste 14 Sudoeste 0 -- -- 59
2020-03-09 23:00:00 14.7 7 Sudoeste 15 Sudoeste 0 -- -- 78
2020-03-09 22:00:00 15.6 6 Oeste 10 Oeste 0 -- -- 91
2020-03-09 21:00:00 15.9 4 Noroeste 8 Noroeste 0 -- -- 91
2020-03-09 20:00:00 16.3 4 Noroeste 8 Norte 0 -- -- 89
2020-03-09 19:00:00 17.7 4 Nordeste 9 Nordeste 0 -- -- 86
2020-03-09 18:00:00 18.8 5 Nordeste 13 Norte 0 -- -- 81
2020-03-09 17:00:00 20.4 6 Nordeste 12 Noroeste 0 -- -- 70
2020-03-09 16:00:00 20.2 8 Nordeste 18 Nordeste 0 -- -- 70
2020-03-09 15:00:00 21.4 9 Nordeste 18 Este 0 -- -- 59
2020-03-09 14:00:00 22.2 10 Nordeste 17 Nordeste 0 -- -- 60
2020-03-09 13:00:00 21.9 8 Este 15 Nordeste 0 -- -- 60
2020-03-09 12:00:00 21.4 6 Nordeste 12 Nordeste 0 -- -- 60
2020-03-09 11:00:00 20.3 3 Nordeste 10 Norte 0 -- -- 70
2020-03-09 10:00:00 18 5 Norte 15 Oeste 0 -- -- 83
2020-03-09 09:00:00 16.1 7 Oeste 14 Noroeste 0 -- -- 91
2020-03-09 08:00:00 14.9 5 Oeste 13 Oeste 0 -- -- 89
2020-03-09 07:00:00 14.9 4 Sur 15 Sur 0 -- -- 47
2020-03-09 06:00:00 14.9 7 Sur 13 Sudoeste 0 -- -- 69
2020-03-09 05:00:00 14.6 3 Sur 8 Sur 0 -- -- 83
2020-03-09 04:00:00 14.1 3 Oeste 10 Oeste 0 -- -- 86
2020-03-09 03:00:00 14.9 4 Oeste 10 Oeste 0 -- -- 88
2020-03-09 02:00:00 14.7 4 Oeste 17 Oeste 0 -- -- 84
2020-03-09 01:00:00 14.7 5 Oeste 16 Noroeste 0 -- -- 85
2020-03-09 00:00:00 15.7 8 Noroeste 17 Oeste 0 -- -- 89
2020-03-08 23:00:00 15.3 6 Oeste 11 Sudoeste 0 -- -- 80
2020-03-08 22:00:00 15.9 5 Noroeste 13 Oeste 0 -- -- 91
2020-03-08 21:00:00 16.3 8 Noroeste 12 Noroeste 0 -- -- 91
2020-03-08 20:00:00 16.8 6 Noroeste 13 Noroeste 0 -- -- 90
2020-03-08 19:00:00 17.4 4 Norte 10 Norte 0 -- -- 87
2020-03-08 18:00:00 18.9 4 Norte 13 Norte 0 -- -- 81
2020-03-08 17:00:00 19.5 5 Nordeste 13 Nordeste 0 -- -- 78
2020-03-08 16:00:00 19.7 6 Nordeste 16 Nordeste 0 -- -- 76
2020-03-08 15:00:00 20.1 7 Nordeste 15 Nordeste 0 -- -- 72
2020-03-08 14:00:00 20 9 Nordeste 18 Nordeste 0 -- -- 72
2020-03-08 13:00:00 20.1 9 Norte 17 Noroeste 0 -- -- 74
2020-03-08 12:00:00 19.9 9 Norte 18 Norte 0 -- -- 74
2020-03-08 11:00:00 19.1 7 Norte 16 Norte 0 -- -- 76
2020-03-08 10:00:00 17.6 9 Noroeste 16 Noroeste 0 -- -- 81
2020-03-08 09:00:00 15.9 7 Noroeste 13 Noroeste 0 -- -- 87
2020-03-08 08:00:00 13.5 5 Sudoeste 15 Oeste 0 -- -- 90
2020-03-08 07:00:00 13.4 5 Oeste 15 Oeste 0 -- -- 88
2020-03-08 06:00:00 14.2 5 Oeste 15 Oeste 0 -- -- 87
2020-03-08 05:00:00 15 7 Oeste 15 Noroeste 0 -- -- 87
2020-03-08 04:00:00 15.1 9 Noroeste 18 Noroeste 0 -- -- 86
2020-03-08 03:00:00 15.5 9 Noroeste 19 Noroeste 0 -- -- 86
2020-03-08 02:00:00 15.6 10 Noroeste 23 Oeste 0 -- -- 85
2020-03-08 01:00:00 15.7 13 Noroeste 25 Noroeste 0 -- -- 83
2020-03-08 00:00:00 15.6 15 Noroeste 29 Noroeste 0 -- -- 81
2020-03-07 23:00:00 15.8 12 Noroeste 26 Noroeste 0 -- -- 83
2020-03-07 22:00:00 15.7 13 Noroeste 25 Noroeste 0 -- -- 84
2020-03-07 21:00:00 15.7 15 Noroeste 28 Noroeste 0 -- -- 82
2020-03-07 20:00:00 15.6 14 Noroeste 24 Noroeste 0 -- -- 83
2020-03-07 19:00:00 15.8 14 Noroeste 23 Noroeste 0 -- -- 81
2020-03-07 18:00:00 16.1 11 Noroeste 27 Noroeste 0 -- -- 78
2020-03-07 17:00:00 16.3 14 Noroeste 23 Noroeste 0 -- -- 80
2020-03-07 16:00:00 16.8 13 Noroeste 25 Noroeste 0 -- -- 74
2020-03-07 15:00:00 17.1 16 Noroeste 25 Noroeste 0 -- -- 73
2020-03-07 14:00:00 17.6 12 Noroeste 24 Noroeste 0 -- -- 71
2020-03-07 13:00:00 16.8 13 Noroeste 26 Noroeste 0 -- -- 76
2020-03-07 12:00:00 17.1 13 Noroeste 27 Noroeste 0 -- -- 74
2020-03-07 11:00:00 16.9 14 Noroeste 26 Norte 0 -- -- 71
2020-03-07 10:00:00 16.2 10 Noroeste 18 Noroeste 0 -- -- 72
2020-03-07 09:00:00 15.5 7 Noroeste 21 Noroeste 0 -- -- 75
2020-03-07 08:00:00 14.9 9 Noroeste 22 Noroeste 0 -- -- 77
2020-03-07 07:00:00 14.6 6 Noroeste 18 Este 0 -- -- 74
2020-03-07 06:00:00 14.7 6 Norte 20 Norte 0 -- -- 75
2020-03-07 05:00:00 14.7 8 Noroeste 20 Norte 0 -- -- 75
2020-03-07 04:00:00 14.7 10 Noroeste 20 Norte 0 -- -- 75
2020-03-07 03:00:00 14.7 6 Norte 17 Noroeste 0 -- -- 77
2020-03-07 02:00:00 14.6 8 Noroeste 21 Noroeste 0 -- -- 78
2020-03-07 01:00:00 14.8 9 Noroeste 20 Norte 0 -- -- 77
2020-03-07 00:00:00 14.6 9 Noroeste 22 Norte 0 -- -- 74
2020-03-06 23:00:00 14.9 10 Noroeste 23 Norte 0 -- -- 76
2020-03-06 22:00:00 14.9 9 Noroeste 29 Nordeste 0 -- -- 73
2020-03-06 21:00:00 15.2 9 Norte 27 Norte 0 -- -- 72
2020-03-06 20:00:00 15.2 13 Noroeste 25 Noroeste 0 -- -- 73
2020-03-06 19:00:00 15.4 8 Norte 22 Norte 0 -- -- 73
2020-03-06 18:00:00 16 9 Norte 21 Nordeste 0 -- -- 73
2020-03-06 17:00:00 16.2 10 Norte 34 Nordeste 0 -- -- 71
2020-03-06 16:00:00 16.7 6 Norte 23 Noroeste 0 -- -- 71
2020-03-06 15:00:00 16.2 13 Norte 28 Norte 0 -- -- 70
2020-03-06 14:00:00 16.4 13 Norte 32 Noroeste 0 -- -- 68
2020-03-06 13:00:00 16.2 12 Norte 28 Nordeste 0 -- -- 72
2020-03-06 12:00:00 15.8 10 Norte 26 Nordeste 0 -- -- 75
2020-03-06 11:00:00 15.5 10 Norte 26 Nordeste 0 -- -- 74
2020-03-06 10:00:00 14.7 7 Norte 26 Noroeste 0 -- -- 79
2020-03-06 09:00:00 14.3 6 Norte 27 Norte 0.2 -- -- 83
2020-03-06 08:00:00 14.2 8 Noroeste 26 Noroeste 0 -- -- 87
2020-03-06 07:00:00 14.1 7 Norte 24 Noroeste 0.6 -- -- 95
2020-03-06 06:00:00 14.8 8 Norte 23 Norte 1.2 -- -- 97
2020-03-06 05:00:00 15.1 11 Norte 23 Noroeste 0.6 -- -- 97
2020-03-06 04:00:00 15.5 7 Norte 24 Norte 1.6 -- -- 96
2020-03-06 03:00:00 15.6 8 Noroeste 22 Noroeste 0.4 -- -- 95
2020-03-06 02:00:00 15.9 10 Noroeste 21 Noroeste 0 -- -- 89
2020-03-06 01:00:00 16.2 6 Oeste 20 Norte 0 -- -- 82
2020-03-06 00:00:00 16.1 9 Noroeste 19 Noroeste 0 -- -- 87
2020-03-05 23:00:00 15.9 6 Noroeste 18 Noroeste 0 -- -- 87
2020-03-05 22:00:00 15.9 11 Noroeste 20 Noroeste 0 -- -- 84
2020-03-05 21:00:00 15.9 12 Noroeste 22 Noroeste 0 -- -- 82
2020-03-05 20:00:00 16 10 Noroeste 21 Noroeste 0 -- -- 83
2020-03-05 19:00:00 16.2 12 Noroeste 20 Norte 0 -- -- 83
2020-03-05 18:00:00 16.6 10 Noroeste 20 Noroeste 0 -- -- 80
2020-03-05 17:00:00 17 9 Noroeste 19 Norte 0 -- -- 77
2020-03-05 16:00:00 17.2 11 Noroeste 21 Norte 0 -- -- 79
2020-03-05 15:00:00 17.3 12 Noroeste 27 Norte 0 -- -- 79
2020-03-05 14:00:00 17.1 12 Noroeste 21 Norte 0 -- -- 83
2020-03-05 13:00:00 17.2 12 Noroeste 21 Noroeste 0 -- -- 82
2020-03-05 12:00:00 17.1 12 Noroeste 21 Noroeste 0 -- -- 82
2020-03-05 11:00:00 16.8 10 Noroeste 19 Noroeste 0 -- -- 85
2020-03-05 10:00:00 15.9 10 Noroeste 20 Noroeste 0 -- -- 89
2020-03-05 09:00:00 15.6 10 Noroeste 22 Noroeste 0 -- -- 89
2020-03-05 08:00:00 15.4 9 Noroeste 16 Noroeste 0 -- -- 91
2020-03-05 07:00:00 15.4 8 Noroeste 18 Noroeste 0 -- -- 92
2020-03-05 06:00:00 15.4 10 Noroeste 18 Noroeste 0 -- -- 92
2020-03-05 05:00:00 15.5 10 Noroeste 17 Noroeste 0 -- -- 91
2020-03-05 04:00:00 15.6 10 Noroeste 21 Noroeste 0 -- -- 90
2020-03-05 03:00:00 15.6 11 Noroeste 21 Oeste 0 -- -- 90
2020-03-05 02:00:00 15.7 9 Noroeste 21 Noroeste 0 -- -- 90
2020-03-05 01:00:00 15.7 9 Noroeste 21 Noroeste 0 -- -- 90
2020-03-05 00:00:00 16 8 Noroeste 21 Oeste 0 -- -- 91
2020-03-04 23:00:00 16.1 12 Noroeste 23 Noroeste 0 -- -- 91
2020-03-04 22:00:00 16 11 Noroeste 22 Noroeste 0 -- -- 93
2020-03-04 21:00:00 16.2 9 Noroeste 16 Noroeste 0 -- -- 94
2020-03-04 20:00:00 16.6 2 Noroeste 8 Oeste 0 -- -- 88
2020-03-04 19:00:00 17.5 4 Noroeste 10 Norte 0 -- -- 85
2020-03-04 18:00:00 18.9 8 Norte 12 Norte 0 -- -- 79
2020-03-04 17:00:00 19.7 7 Norte 15 Norte 0 -- -- 77
2020-03-04 16:00:00 20.3 7 Norte 19 Norte 0 -- -- 75
2020-03-04 15:00:00 20.1 9 Noroeste 21 Norte 0 -- -- 76
2020-03-04 14:00:00 20.4 10 Norte 21 Norte 0 -- -- 74
2020-03-04 13:00:00 19.8 10 Noroeste 19 Noroeste 0 -- -- 78
2020-03-04 12:00:00 20.5 8 Norte 13 Norte 0 -- -- 73
2020-03-04 11:00:00 19.9 7 Norte 10 Norte 0 -- -- 76
2020-03-04 10:00:00 18 6 Noroeste 9 Noroeste 0 -- -- 81
2020-03-04 09:00:00 15.9 4 Noroeste 9 Oeste 0 -- -- 87
2020-03-04 08:00:00 13.3 5 Oeste 10 Oeste 0 -- -- 88
2020-03-04 07:00:00 13 5 Oeste 9 Oeste 0 -- -- 89
2020-03-04 06:00:00 13.1 5 Oeste 9 Oeste 0 -- -- 88
2020-03-04 05:00:00 13.6 6 Oeste 9 Oeste 0 -- -- 89
2020-03-04 04:00:00 13.9 6 Sudoeste 10 Oeste 0 -- -- 90
2020-03-04 03:00:00 13.9 4 Sudoeste 6 Oeste 0 -- -- 92
2020-03-04 02:00:00 14.3 4 Oeste 7 Oeste 0 -- -- 92
2020-03-04 01:00:00 14.4 4 Oeste 7 Oeste 0 -- -- 90
2020-03-04 00:00:00 14.9 4 Oeste 8 Oeste 0 -- -- 89
2020-03-03 23:00:00 15.8 5 Noroeste 12 Oeste 0 -- -- 88
2020-03-03 22:00:00 16 5 Noroeste 15 Noroeste 0 -- -- 86
2020-03-03 21:00:00 16.2 7 Noroeste 16 Oeste 0 -- -- 86
2020-03-03 20:00:00 16.3 9 Noroeste 17 Noroeste 0 -- -- 85
2020-03-03 19:00:00 16.6 9 Noroeste 19 Noroeste 0 -- -- 83
2020-03-03 18:00:00 17.8 10 Noroeste 21 Noroeste 0 -- -- 80
2020-03-03 17:00:00 18.6 9 Noroeste 20 Norte 0 -- -- 77
2020-03-03 16:00:00 19.1 10 Noroeste 23 Norte 0 -- -- 74
2020-03-03 15:00:00 19.3 10 Norte 23 Noroeste 0 -- -- 73
2020-03-03 14:00:00 19.4 13 Norte 21 Norte 0 -- -- 73
2020-03-03 13:00:00 19.3 11 Norte 21 Norte 0 -- -- 74
2020-03-03 12:00:00 18.8 8 Noroeste 20 Noroeste 0 -- -- 77
2020-03-03 11:00:00 18.1 9 Norte 15 Nordeste 0 -- -- 79
2020-03-03 10:00:00 17 5 Nordeste 15 Noroeste 0 -- -- 79
2020-03-03 09:00:00 16.2 3 Oeste 10 Norte 0 -- -- 84
2020-03-03 08:00:00 15.9 5 Norte 13 Nordeste 0 -- -- 86
2020-03-03 07:00:00 15.8 4 Norte 9 Norte 0 -- -- 86
2020-03-03 06:00:00 15.8 4 Norte 12 Noroeste 0 -- -- 86
2020-03-03 05:00:00 15.9 6 Norte 14 Noroeste 0 -- -- 87
2020-03-03 04:00:00 15.6 5 Oeste 10 Oeste 0 -- -- 87
2020-03-03 03:00:00 15.5 4 Oeste 12 Oeste 0 -- -- 85
2020-03-03 02:00:00 15.7 6 Noroeste 14 Oeste 0 -- -- 88
2020-03-03 01:00:00 15.9 6 Noroeste 12 Oeste 0 -- -- 87
2020-03-03 00:00:00 15.8 5 Noroeste 12 Oeste 0 -- -- 86
2020-03-02 23:00:00 15.2 4 Oeste 15 Sudoeste 0 -- -- 82
2020-03-02 22:00:00 15.7 6 Noroeste 15 Noroeste 0 -- -- 89
2020-03-02 21:00:00 16.1 9 Noroeste 18 Noroeste 0 -- -- 87
2020-03-02 20:00:00 16.8 9 Norte 20 Noroeste 0 -- -- 87
2020-03-02 19:00:00 16.9 11 Noroeste 24 Noroeste 0 -- -- 85
2020-03-02 18:00:00 17.2 12 Noroeste 25 Noroeste 0 -- -- 84
2020-03-02 17:00:00 18.7 10 Noroeste 23 Noroeste 0 -- -- 75
2020-03-02 16:00:00 19.1 11 Norte 27 Norte 0 -- -- 73
2020-03-02 15:00:00 19 13 Norte 26 Norte 0 -- -- 69
2020-03-02 14:00:00 19 13 Noroeste 27 Norte 0 -- -- 66
2020-03-02 13:00:00 19 13 Noroeste 27 Noroeste 0 -- -- 75
2020-03-02 12:00:00 19.2 13 Noroeste 26 Noroeste 0 -- -- 72
2020-03-02 11:00:00 19.1 14 Norte 24 Noroeste 0 -- -- 71
2020-03-02 10:00:00 17.5 12 Noroeste 21 Noroeste 0 -- -- 77
2020-03-02 09:00:00 16.7 9 Noroeste 17 Oeste 0 -- -- 80
2020-03-02 08:00:00 15.3 9 Noroeste 17 Oeste 0 -- -- 81
2020-03-02 07:00:00 15 9 Noroeste 20 Noroeste 0 -- -- 83
2020-03-02 06:00:00 15.6 12 Noroeste 23 Noroeste 0 -- -- 83
2020-03-02 05:00:00 15.5 8 Noroeste 19 Oeste 0 -- -- 78
2020-03-02 04:00:00 15.8 12 Noroeste 22 Noroeste 0 -- -- 80
2020-03-02 03:00:00 15.7 9 Noroeste 21 Noroeste 0 -- -- 79
2020-03-02 02:00:00 15.8 10 Noroeste 22 Noroeste 0 -- -- 80
2020-03-02 01:00:00 16.4 10 Noroeste 22 Noroeste 0 -- -- 78
2020-03-02 00:00:00 16.2 9 Noroeste 23 Noroeste 0 -- -- 82
2020-03-01 23:00:00 16 8 Noroeste 17 Oeste 0 -- -- 79
2020-03-01 22:00:00 16.1 8 Noroeste 15 Norte 0 -- -- 80
2020-03-01 21:00:00 16 7 Noroeste 18 Oeste 0 -- -- 80
2020-03-01 20:00:00 16 9 Noroeste 21 Noroeste 0 -- -- 80
2020-03-01 19:00:00 15.9 10 Noroeste 20 Noroeste 0 -- -- 80
2020-03-01 18:00:00 16.7 12 Noroeste 26 Norte 0 -- -- 80
2020-03-01 17:00:00 17.6 12 Noroeste 24 Noroeste 0 -- -- 77
2020-03-01 16:00:00 17.9 17 Noroeste 24 Noroeste 0 -- -- 76
2020-03-01 15:00:00 19.2 9 Norte 18 Norte 0 -- -- 71
2020-03-01 14:00:00 18.8 9 Noroeste 19 Norte 0 -- -- 70
2020-03-01 13:00:00 19.3 9 Norte 18 Norte 0 -- -- 70
2020-03-01 12:00:00 18.4 10 Norte 23 Noroeste 0 -- -- 73
2020-03-01 11:00:00 17.8 8 Norte 18 Noroeste 0 -- -- 76
2020-03-01 10:00:00 16 7 Noroeste 17 Noroeste 0 -- -- 84
2020-03-01 09:00:00 15.1 10 Noroeste 19 Noroeste 0 -- -- 87
2020-03-01 08:00:00 14.5 9 Noroeste 18 Oeste 0 -- -- 89
2020-03-01 07:00:00 12.9 6 Oeste 10 Oeste 0 -- -- 90
2020-03-01 06:00:00 13.6 4 Oeste 13 Noroeste 0 -- -- 87
2020-03-01 05:00:00 14.8 7 Noroeste 19 Oeste 0 -- -- 86
2020-03-01 04:00:00 14.9 8 Noroeste 18 Oeste 0 -- -- 86
2020-03-01 03:00:00 14.8 9 Noroeste 18 Oeste 0 -- -- 88
2020-03-01 02:00:00 14.5 7 Noroeste 13 Oeste 0 -- -- 90
2020-03-01 01:00:00 13.3 7 Oeste 10 Oeste 0 -- -- 88
2020-03-01 00:00:00 13.6 6 Oeste 13 Oeste 0 -- -- 88
2020-02-29 23:00:00 13.6 6 Oeste 10 Oeste 0 -- -- 87
2020-02-29 22:00:00 14.1 6 Oeste 13 Oeste 0 -- -- 84
2020-02-29 21:00:00 15 6 Noroeste 21 Noroeste 0 -- -- 85
2020-02-29 20:00:00 15.5 12 Noroeste 20 Noroeste 0 -- -- 84
2020-02-29 19:00:00 15.7 10 Noroeste 21 Noroeste 0 -- -- 83
2020-02-29 18:00:00 16.5 12 Noroeste 23 Noroeste 0 -- -- 80
2020-02-29 17:00:00 17.2 13 Noroeste 19 Noroeste 0 -- -- 78
2020-02-29 16:00:00 18.2 7 Noroeste 17 Noroeste 0 -- -- 75
2020-02-29 15:00:00 18.8 7 Noroeste 18 Noroeste 0 -- -- 73
2020-02-29 14:00:00 18.5 7 Norte 16 Nordeste 0 -- -- 72
2020-02-29 13:00:00 18.4 6 Norte 17 Norte 0 -- -- 70
2020-02-29 12:00:00 18.5 7 Norte 16 Norte 0 -- -- 70
2020-02-29 11:00:00 17.8 6 Oeste 16 Noroeste 0 -- -- 76
2020-02-29 10:00:00 16.5 7 Noroeste 15 Noroeste 0 -- -- 80
2020-02-29 09:00:00 15.3 5 Noroeste 12 Norte 0 -- -- 83
2020-02-29 08:00:00 14.6 4 Noroeste 17 Noroeste 0 -- -- 83
2020-02-29 07:00:00 14.2 5 Noroeste 13 Oeste 0 -- -- 84
2020-02-29 06:00:00 14.5 7 Noroeste 19 Noroeste 0 -- -- 82
2020-02-29 05:00:00 15 9 Noroeste 18 Noroeste 0 -- -- 81
2020-02-29 04:00:00 15.3 11 Noroeste 23 Noroeste 0 -- -- 80
2020-02-29 03:00:00 15.4 13 Noroeste 30 Noroeste 0 -- -- 81
2020-02-29 02:00:00 15.5 15 Noroeste 28 Noroeste 0 -- -- 81
2020-02-29 01:00:00 15.7 14 Noroeste 27 Noroeste 0 -- -- 82
2020-02-29 00:00:00 15.8 15 Noroeste 32 Oeste 0 -- -- 81